sensor_id;sensor_type;location;lat;lon;timestamp;P1;durP1;ratioP1;P2;durP2;ratioP2
69046;SDS011;57261;47.504;19.084;2022-12-07T00:02:52;21.43;;;13.77;;
69046;SDS011;57261;47.504;19.084;2022-12-07T00:05:52;22.50;;;13.30;;
69046;SDS011;57261;47.504;19.084;2022-12-07T00:08:58;21.70;;;12.55;;
69046;SDS011;57261;47.504;19.084;2022-12-07T00:11:58;21.50;;;13.10;;
69046;SDS011;57261;47.504;19.084;2022-12-07T00:14:59;21.85;;;13.55;;
69046;SDS011;57261;47.504;19.084;2022-12-07T00:17:59;23.10;;;13.37;;
69046;SDS011;57261;47.504;19.084;2022-12-07T00:21:00;22.77;;;13.90;;
69046;SDS011;57261;47.504;19.084;2022-12-07T00:24:02;21.02;;;13.60;;
69046;SDS011;57261;47.504;19.084;2022-12-07T00:27:03;23.50;;;13.40;;
69046;SDS011;57261;47.504;19.084;2022-12-07T00:30:04;21.43;;;13.47;;
69046;SDS011;57261;47.504;19.084;2022-12-07T00:33:05;24.33;;;13.82;;
69046;SDS011;57261;47.504;19.084;2022-12-07T00:36:06;22.47;;;14.33;;
69046;SDS011;57261;47.504;19.084;2022-12-07T00:39:09;23.30;;;14.40;;
69046;SDS011;57261;47.504;19.084;2022-12-07T00:42:10;21.83;;;13.47;;
69046;SDS011;57261;47.504;19.084;2022-12-07T00:45:10;20.47;;;13.47;;
69046;SDS011;57261;47.504;19.084;2022-12-07T00:48:10;23.15;;;13.80;;
69046;SDS011;57261;47.504;19.084;2022-12-07T00:51:12;23.23;;;13.77;;
69046;SDS011;57261;47.504;19.084;2022-12-07T00:54:13;23.13;;;14.30;;
69046;SDS011;57261;47.504;19.084;2022-12-07T00:57:14;22.05;;;13.15;;
69046;SDS011;57261;47.504;19.084;2022-12-07T01:00:14;26.42;;;14.82;;
69046;SDS011;57261;47.504;19.084;2022-12-07T01:03:23;22.27;;;14.03;;
69046;SDS011;57261;47.504;19.084;2022-12-07T01:06:24;24.37;;;14.40;;
69046;SDS011;57261;47.504;19.084;2022-12-07T01:09:25;21.70;;;12.43;;
69046;SDS011;57261;47.504;19.084;2022-12-07T01:12:26;20.53;;;12.60;;
69046;SDS011;57261;47.504;19.084;2022-12-07T01:15:26;21.65;;;12.65;;
69046;SDS011;57261;47.504;19.084;2022-12-07T01:18:27;19.30;;;11.57;;
69046;SDS011;57261;47.504;19.084;2022-12-07T01:21:30;20.63;;;12.23;;
69046;SDS011;57261;47.504;19.084;2022-12-07T01:24:52;21.10;;;12.73;;
69046;SDS011;57261;47.504;19.084;2022-12-07T01:27:52;21.53;;;13.03;;
69046;SDS011;57261;47.504;19.084;2022-12-07T01:31:00;19.90;;;11.50;;
69046;SDS011;57261;47.504;19.084;2022-12-07T01:34:03;22.90;;;13.82;;
69046;SDS011;57261;47.504;19.084;2022-12-07T01:37:05;24.42;;;14.50;;
69046;SDS011;57261;47.504;19.084;2022-12-07T01:40:06;19.20;;;11.57;;
69046;SDS011;57261;47.504;19.084;2022-12-07T01:43:13;19.38;;;10.80;;
69046;SDS011;57261;47.504;19.084;2022-12-07T01:46:17;16.33;;;10.40;;
69046;SDS011;57261;47.504;19.084;2022-12-07T01:49:20;18.10;;;11.00;;
69046;SDS011;57261;47.504;19.084;2022-12-07T01:52:27;17.85;;;10.93;;
69046;SDS011;57261;47.504;19.084;2022-12-07T01:55:30;18.65;;;11.20;;
69046;SDS011;57261;47.504;19.084;2022-12-07T01:58:31;20.17;;;12.00;;
69046;SDS011;57261;47.504;19.084;2022-12-07T02:01:31;20.80;;;12.00;;
69046;SDS011;57261;47.504;19.084;2022-12-07T02:04:33;18.52;;;10.80;;
69046;SDS011;57261;47.504;19.084;2022-12-07T02:07:36;20.92;;;11.68;;
69046;SDS011;57261;47.504;19.084;2022-12-07T02:10:39;21.40;;;12.82;;
69046;SDS011;57261;47.504;19.084;2022-12-07T02:13:40;22.80;;;13.65;;
69046;SDS011;57261;47.504;19.084;2022-12-07T02:16:46;23.10;;;14.30;;
69046;SDS011;57261;47.504;19.084;2022-12-07T02:30:45;21.37;;;13.23;;
69046;SDS011;57261;47.504;19.084;2022-12-07T02:33:57;24.02;;;15.25;;
69046;SDS011;57261;47.504;19.084;2022-12-07T02:37:13;22.73;;;13.75;;
69046;SDS011;57261;47.504;19.084;2022-12-07T02:40:31;26.00;;;15.60;;
69046;SDS011;57261;47.504;19.084;2022-12-07T02:43:38;27.20;;;17.10;;
69046;SDS011;57261;47.504;19.084;2022-12-07T02:46:55;23.42;;;14.35;;
69046;SDS011;57261;47.504;19.084;2022-12-07T02:50:00;27.95;;;16.42;;
69046;SDS011;57261;47.504;19.084;2022-12-07T02:53:27;25.92;;;15.05;;
69046;SDS011;57261;47.504;19.084;2022-12-07T03:05:59;26.00;;;15.43;;
69046;SDS011;57261;47.504;19.084;2022-12-07T03:12:17;28.13;;;16.47;;
69046;SDS011;57261;47.504;19.084;2022-12-07T03:18:37;25.65;;;15.70;;
69046;SDS011;57261;47.504;19.084;2022-12-07T03:21:53;26.33;;;15.82;;
69046;SDS011;57261;47.504;19.084;2022-12-07T03:25:00;26.50;;;16.90;;
69046;SDS011;57261;47.504;19.084;2022-12-07T03:28:05;26.00;;;16.35;;
69046;SDS011;57261;47.504;19.084;2022-12-07T03:31:12;27.42;;;16.23;;
69046;SDS011;57261;47.504;19.084;2022-12-07T03:34:22;25.30;;;15.40;;
69046;SDS011;57261;47.504;19.084;2022-12-07T03:37:29;24.55;;;15.43;;
69046;SDS011;57261;47.504;19.084;2022-12-07T03:40:39;25.85;;;16.00;;
69046;SDS011;57261;47.504;19.084;2022-12-07T03:43:44;29.13;;;16.83;;
69046;SDS011;57261;47.504;19.084;2022-12-07T03:50:09;26.08;;;15.85;;
69046;SDS011;57261;47.504;19.084;2022-12-07T03:53:30;24.27;;;15.50;;
69046;SDS011;57261;47.504;19.084;2022-12-07T03:56:40;25.13;;;15.32;;
69046;SDS011;57261;47.504;19.084;2022-12-07T03:59:43;24.70;;;15.45;;
69046;SDS011;57261;47.504;19.084;2022-12-07T04:02:43;25.63;;;15.23;;
69046;SDS011;57261;47.504;19.084;2022-12-07T04:05:44;22.67;;;14.60;;
69046;SDS011;57261;47.504;19.084;2022-12-07T04:08:45;24.17;;;14.80;;
69046;SDS011;57261;47.504;19.084;2022-12-07T04:11:46;23.93;;;15.00;;
69046;SDS011;57261;47.504;19.084;2022-12-07T04:14:46;24.88;;;15.32;;
69046;SDS011;57261;47.504;19.084;2022-12-07T04:17:47;23.60;;;14.67;;
69046;SDS011;57261;47.504;19.084;2022-12-07T04:20:47;24.52;;;14.80;;
69046;SDS011;57261;47.504;19.084;2022-12-07T04:23:48;23.58;;;15.25;;
69046;SDS011;57261;47.504;19.084;2022-12-07T04:26:49;24.30;;;14.77;;
69046;SDS011;57261;47.504;19.084;2022-12-07T04:29:50;24.05;;;15.40;;
69046;SDS011;57261;47.504;19.084;2022-12-07T04:32:50;23.27;;;14.73;;
69046;SDS011;57261;47.504;19.084;2022-12-07T04:35:51;23.67;;;14.87;;
69046;SDS011;57261;47.504;19.084;2022-12-07T04:38:53;23.38;;;14.50;;
69046;SDS011;57261;47.504;19.084;2022-12-07T04:41:54;23.23;;;13.70;;
69046;SDS011;57261;47.504;19.084;2022-12-07T04:44:55;24.05;;;15.18;;
69046;SDS011;57261;47.504;19.084;2022-12-07T04:47:55;23.10;;;14.53;;
69046;SDS011;57261;47.504;19.084;2022-12-07T04:51:02;22.33;;;15.05;;
69046;SDS011;57261;47.504;19.084;2022-12-07T04:54:03;20.67;;;13.60;;
69046;SDS011;57261;47.504;19.084;2022-12-07T04:57:04;21.08;;;13.18;;
69046;SDS011;57261;47.504;19.084;2022-12-07T05:00:05;22.70;;;13.93;;
69046;SDS011;57261;47.504;19.084;2022-12-07T05:03:11;20.80;;;13.18;;
69046;SDS011;57261;47.504;19.084;2022-12-07T05:06:12;22.07;;;14.00;;
69046;SDS011;57261;47.504;19.084;2022-12-07T05:09:12;22.50;;;14.85;;
69046;SDS011;57261;47.504;19.084;2022-12-07T05:12:14;22.97;;;14.07;;
69046;SDS011;57261;47.504;19.084;2022-12-07T05:15:15;21.38;;;13.25;;
69046;SDS011;57261;47.504;19.084;2022-12-07T05:18:15;15.30;;;9.53;;
69046;SDS011;57261;47.504;19.084;2022-12-07T05:21:16;19.47;;;12.60;;
69046;SDS011;57261;47.504;19.084;2022-12-07T05:24:16;21.10;;;13.17;;
69046;SDS011;57261;47.504;19.084;2022-12-07T05:27:17;19.10;;;11.73;;
69046;SDS011;57261;47.504;19.084;2022-12-07T05:30:23;18.33;;;10.88;;
69046;SDS011;57261;47.504;19.084;2022-12-07T05:33:25;11.73;;;6.47;;
69046;SDS011;57261;47.504;19.084;2022-12-07T05:36:25;16.03;;;10.07;;
69046;SDS011;57261;47.504;19.084;2022-12-07T05:39:28;11.05;;;6.20;;
69046;SDS011;57261;47.504;19.084;2022-12-07T05:42:29;11.33;;;5.60;;
69046;SDS011;57261;47.504;19.084;2022-12-07T05:45:29;11.37;;;5.97;;
69046;SDS011;57261;47.504;19.084;2022-12-07T05:48:29;12.60;;;7.10;;
69046;SDS011;57261;47.504;19.084;2022-12-07T05:51:30;10.90;;;6.43;;
69046;SDS011;57261;47.504;19.084;2022-12-07T05:54:30;13.67;;;7.60;;
69046;SDS011;57261;47.504;19.084;2022-12-07T05:57:31;14.20;;;7.93;;
69046;SDS011;57261;47.504;19.084;2022-12-07T06:00:31;13.17;;;7.53;;
69046;SDS011;57261;47.504;19.084;2022-12-07T06:03:32;15.43;;;8.57;;
69046;SDS011;57261;47.504;19.084;2022-12-07T06:06:32;13.77;;;8.07;;
69046;SDS011;57261;47.504;19.084;2022-12-07T06:09:33;13.90;;;7.60;;
69046;SDS011;57261;47.504;19.084;2022-12-07T06:12:34;16.13;;;8.80;;
69046;SDS011;57261;47.504;19.084;2022-12-07T06:15:37;14.40;;;8.77;;
69046;SDS011;57261;47.504;19.084;2022-12-07T06:18:37;16.30;;;9.03;;
69046;SDS011;57261;47.504;19.084;2022-12-07T06:21:38;14.43;;;8.50;;
69046;SDS011;57261;47.504;19.084;2022-12-07T06:24:38;16.73;;;8.57;;
69046;SDS011;57261;47.504;19.084;2022-12-07T06:27:40;15.13;;;8.70;;
69046;SDS011;57261;47.504;19.084;2022-12-07T06:30:43;14.80;;;8.45;;
69046;SDS011;57261;47.504;19.084;2022-12-07T06:33:43;15.47;;;8.57;;
69046;SDS011;57261;47.504;19.084;2022-12-07T06:36:44;14.17;;;8.30;;
69046;SDS011;57261;47.504;19.084;2022-12-07T06:39:45;16.52;;;9.68;;
69046;SDS011;57261;47.504;19.084;2022-12-07T06:42:51;14.88;;;8.75;;
69046;SDS011;57261;47.504;19.084;2022-12-07T06:45:52;17.77;;;11.03;;
69046;SDS011;57261;47.504;19.084;2022-12-07T06:48:52;16.50;;;9.85;;
69046;SDS011;57261;47.504;19.084;2022-12-07T06:51:53;17.53;;;10.20;;
69046;SDS011;57261;47.504;19.084;2022-12-07T06:54:53;19.92;;;11.38;;
69046;SDS011;57261;47.504;19.084;2022-12-07T06:57:54;20.60;;;12.83;;
69046;SDS011;57261;47.504;19.084;2022-12-07T07:00:55;19.57;;;12.30;;
69046;SDS011;57261;47.504;19.084;2022-12-07T07:03:55;21.13;;;13.00;;
69046;SDS011;57261;47.504;19.084;2022-12-07T07:06:55;21.45;;;13.90;;
69046;SDS011;57261;47.504;19.084;2022-12-07T07:09:56;25.27;;;15.50;;
69046;SDS011;57261;47.504;19.084;2022-12-07T07:12:56;22.90;;;13.83;;
69046;SDS011;57261;47.504;19.084;2022-12-07T07:15:56;27.80;;;16.20;;
69046;SDS011;57261;47.504;19.084;2022-12-07T07:18:57;25.50;;;14.50;;
69046;SDS011;57261;47.504;19.084;2022-12-07T07:21:58;25.50;;;16.10;;
69046;SDS011;57261;47.504;19.084;2022-12-07T07:24:59;22.75;;;14.40;;
69046;SDS011;57261;47.504;19.084;2022-12-07T07:28:00;26.50;;;15.67;;
69046;SDS011;57261;47.504;19.084;2022-12-07T07:31:00;22.92;;;15.18;;
69046;SDS011;57261;47.504;19.084;2022-12-07T07:34:01;23.80;;;15.40;;
69046;SDS011;57261;47.504;19.084;2022-12-07T07:37:01;24.60;;;15.47;;
69046;SDS011;57261;47.504;19.084;2022-12-07T07:40:02;24.37;;;15.07;;
69046;SDS011;57261;47.504;19.084;2022-12-07T07:43:02;21.70;;;12.52;;
69046;SDS011;57261;47.504;19.084;2022-12-07T07:46:03;24.20;;;15.30;;
69046;SDS011;57261;47.504;19.084;2022-12-07T07:49:03;21.47;;;13.63;;
69046;SDS011;57261;47.504;19.084;2022-12-07T07:52:05;23.80;;;14.87;;
69046;SDS011;57261;47.504;19.084;2022-12-07T07:55:06;22.80;;;14.43;;
69046;SDS011;57261;47.504;19.084;2022-12-07T07:58:08;23.15;;;14.48;;
69046;SDS011;57261;47.504;19.084;2022-12-07T08:01:09;24.00;;;14.33;;
69046;SDS011;57261;47.504;19.084;2022-12-07T08:04:10;21.45;;;13.55;;
69046;SDS011;57261;47.504;19.084;2022-12-07T08:07:11;23.17;;;14.77;;
69046;SDS011;57261;47.504;19.084;2022-12-07T08:10:12;22.58;;;13.82;;
69046;SDS011;57261;47.504;19.084;2022-12-07T08:13:15;22.83;;;14.70;;
69046;SDS011;57261;47.504;19.084;2022-12-07T08:16:16;22.77;;;13.50;;
69046;SDS011;57261;47.504;19.084;2022-12-07T08:19:17;24.58;;;15.65;;
69046;SDS011;57261;47.504;19.084;2022-12-07T08:22:17;26.43;;;16.67;;
69046;SDS011;57261;47.504;19.084;2022-12-07T08:25:18;24.90;;;15.27;;
69046;SDS011;57261;47.504;19.084;2022-12-07T08:28:20;24.50;;;16.03;;
69046;SDS011;57261;47.504;19.084;2022-12-07T08:31:21;26.15;;;16.27;;
69046;SDS011;57261;47.504;19.084;2022-12-07T08:34:21;24.80;;;16.03;;
69046;SDS011;57261;47.504;19.084;2022-12-07T08:37:22;26.27;;;15.97;;
69046;SDS011;57261;47.504;19.084;2022-12-07T08:40:22;25.58;;;16.90;;
69046;SDS011;57261;47.504;19.084;2022-12-07T08:43:23;24.33;;;16.30;;
69046;SDS011;57261;47.504;19.084;2022-12-07T08:46:25;26.00;;;16.92;;
69046;SDS011;57261;47.504;19.084;2022-12-07T08:49:35;25.90;;;16.37;;
69046;SDS011;57261;47.504;19.084;2022-12-07T08:52:38;26.50;;;16.63;;
69046;SDS011;57261;47.504;19.084;2022-12-07T08:55:40;27.02;;;16.83;;
69046;SDS011;57261;47.504;19.084;2022-12-07T08:58:41;26.97;;;17.17;;
69046;SDS011;57261;47.504;19.084;2022-12-07T09:01:42;27.98;;;17.10;;
69046;SDS011;57261;47.504;19.084;2022-12-07T09:04:43;27.13;;;17.10;;
69046;SDS011;57261;47.504;19.084;2022-12-07T09:07:44;26.40;;;17.60;;
69046;SDS011;57261;47.504;19.084;2022-12-07T09:10:49;27.25;;;17.13;;
69046;SDS011;57261;47.504;19.084;2022-12-07T09:13:49;27.47;;;17.03;;
69046;SDS011;57261;47.504;19.084;2022-12-07T09:16:50;26.03;;;16.70;;
69046;SDS011;57261;47.504;19.084;2022-12-07T09:19:51;24.60;;;16.42;;
69046;SDS011;57261;47.504;19.084;2022-12-07T09:22:51;22.60;;;15.67;;
69046;SDS011;57261;47.504;19.084;2022-12-07T09:25:51;24.67;;;15.53;;
69046;SDS011;57261;47.504;19.084;2022-12-07T09:28:52;24.27;;;15.23;;
69046;SDS011;57261;47.504;19.084;2022-12-07T09:31:52;22.67;;;15.57;;
69046;SDS011;57261;47.504;19.084;2022-12-07T09:34:53;23.70;;;14.90;;
69046;SDS011;57261;47.504;19.084;2022-12-07T09:37:54;23.25;;;14.85;;
69046;SDS011;57261;47.504;19.084;2022-12-07T09:40:54;26.57;;;14.53;;
69046;SDS011;57261;47.504;19.084;2022-12-07T09:43:58;21.67;;;14.15;;
69046;SDS011;57261;47.504;19.084;2022-12-07T09:47:05;19.52;;;12.77;;
69046;SDS011;57261;47.504;19.084;2022-12-07T09:50:10;22.37;;;12.70;;
69046;SDS011;57261;47.504;19.084;2022-12-07T09:53:26;19.33;;;12.00;;
69046;SDS011;57261;47.504;19.084;2022-12-07T09:56:33;19.55;;;11.90;;
69046;SDS011;57261;47.504;19.084;2022-12-07T09:59:33;18.57;;;11.73;;
69046;SDS011;57261;47.504;19.084;2022-12-07T10:02:36;18.17;;;11.40;;
69046;SDS011;57261;47.504;19.084;2022-12-07T10:05:47;17.00;;;10.43;;
69046;SDS011;57261;47.504;19.084;2022-12-07T10:08:50;18.13;;;10.60;;
69046;SDS011;57261;47.504;19.084;2022-12-07T10:11:57;17.23;;;10.07;;
69046;SDS011;57261;47.504;19.084;2022-12-07T10:15:03;16.15;;;9.80;;
69046;SDS011;57261;47.504;19.084;2022-12-07T10:18:13;15.75;;;9.30;;
69046;SDS011;57261;47.504;19.084;2022-12-07T10:21:20;14.98;;;8.98;;
69046;SDS011;57261;47.504;19.084;2022-12-07T10:24:27;15.20;;;9.15;;
69046;SDS011;57261;47.504;19.084;2022-12-07T10:27:31;15.13;;;9.17;;
69046;SDS011;57261;47.504;19.084;2022-12-07T10:30:33;14.18;;;8.60;;
69046;SDS011;57261;47.504;19.084;2022-12-07T10:33:50;15.85;;;9.05;;
69046;SDS011;57261;47.504;19.084;2022-12-07T10:36:53;14.65;;;8.88;;
69046;SDS011;57261;47.504;19.084;2022-12-07T10:40:18;13.23;;;7.80;;
69046;SDS011;57261;47.504;19.084;2022-12-07T10:43:34;13.35;;;7.70;;
69046;SDS011;57261;47.504;19.084;2022-12-07T11:00:16;12.90;;;7.43;;
69046;SDS011;57261;47.504;19.084;2022-12-07T11:03:36;14.33;;;8.37;;
69046;SDS011;57261;47.504;19.084;2022-12-07T11:07:06;13.20;;;7.35;;
69046;SDS011;57261;47.504;19.084;2022-12-07T11:13:47;12.50;;;6.90;;
69046;SDS011;57261;47.504;19.084;2022-12-07T11:27:06;12.65;;;6.75;;
69046;SDS011;57261;47.504;19.084;2022-12-07T11:39:37;12.38;;;7.32;;
69046;SDS011;57261;47.504;19.084;2022-12-07T11:42:49;12.55;;;7.68;;
69046;SDS011;57261;47.504;19.084;2022-12-07T11:52:35;13.32;;;7.60;;
69046;SDS011;57261;47.504;19.084;2022-12-07T11:55:54;13.88;;;7.88;;
69046;SDS011;57261;47.504;19.084;2022-12-07T12:02:51;12.00;;;7.18;;
69046;SDS011;57261;47.504;19.084;2022-12-07T12:05:57;13.23;;;7.35;;
69046;SDS011;57261;47.504;19.084;2022-12-07T12:23:15;13.07;;;7.22;;
69046;SDS011;57261;47.504;19.084;2022-12-07T12:25:54;14.63;;;8.30;;
69046;SDS011;57261;47.504;19.084;2022-12-07T12:29:00;16.42;;;10.30;;
69046;SDS011;57261;47.504;19.084;2022-12-07T12:32:13;14.23;;;7.93;;
69046;SDS011;57261;47.504;19.084;2022-12-07T12:38:31;14.10;;;8.05;;
69046;SDS011;57261;47.504;19.084;2022-12-07T12:44:40;14.48;;;8.55;;
69046;SDS011;57261;47.504;19.084;2022-12-07T12:47:43;13.30;;;7.80;;
69046;SDS011;57261;47.504;19.084;2022-12-07T12:51:35;16.25;;;9.32;;
69046;SDS011;57261;47.504;19.084;2022-12-07T12:54:32;18.92;;;10.15;;
69046;SDS011;57261;47.504;19.084;2022-12-07T12:57:35;14.60;;;7.27;;
69046;SDS011;57261;47.504;19.084;2022-12-07T13:00:36;12.05;;;7.63;;
69046;SDS011;57261;47.504;19.084;2022-12-07T13:03:37;14.97;;;7.97;;
69046;SDS011;57261;47.504;19.084;2022-12-07T13:06:38;13.77;;;7.97;;
69046;SDS011;57261;47.504;19.084;2022-12-07T13:09:42;13.45;;;7.68;;
69046;SDS011;57261;47.504;19.084;2022-12-07T13:12:54;14.90;;;9.00;;
69046;SDS011;57261;47.504;19.084;2022-12-07T13:22:48;14.43;;;7.90;;
69046;SDS011;57261;47.504;19.084;2022-12-07T13:29:13;15.07;;;8.55;;
69046;SDS011;57261;47.504;19.084;2022-12-07T13:32:24;24.48;;;12.48;;
69046;SDS011;57261;47.504;19.084;2022-12-07T13:35:31;16.33;;;9.33;;
69046;SDS011;57261;47.504;19.084;2022-12-07T13:38:33;14.35;;;8.02;;
69046;SDS011;57261;47.504;19.084;2022-12-07T13:41:37;14.73;;;8.48;;
69046;SDS011;57261;47.504;19.084;2022-12-07T13:44:42;14.48;;;7.65;;
69046;SDS011;57261;47.504;19.084;2022-12-07T13:47:49;15.53;;;8.70;;
69046;SDS011;57261;47.504;19.084;2022-12-07T13:50:55;17.80;;;10.00;;
69046;SDS011;57261;47.504;19.084;2022-12-07T13:54:09;15.52;;;8.20;;
69046;SDS011;57261;47.504;19.084;2022-12-07T13:57:11;13.50;;;8.20;;
69046;SDS011;57261;47.504;19.084;2022-12-07T14:00:15;14.20;;;7.97;;
69046;SDS011;57261;47.504;19.084;2022-12-07T14:03:34;13.68;;;8.02;;
69046;SDS011;57261;47.504;19.084;2022-12-07T14:06:36;14.82;;;8.10;;
69046;SDS011;57261;47.504;19.084;2022-12-07T14:09:36;14.40;;;8.52;;
69046;SDS011;57261;47.504;19.084;2022-12-07T14:12:37;16.10;;;8.97;;
69046;SDS011;57261;47.504;19.084;2022-12-07T14:15:37;15.70;;;8.80;;
69046;SDS011;57261;47.504;19.084;2022-12-07T14:18:39;15.33;;;8.70;;
69046;SDS011;57261;47.504;19.084;2022-12-07T14:21:40;14.63;;;8.75;;
69046;SDS011;57261;47.504;19.084;2022-12-07T14:24:44;13.47;;;7.93;;
69046;SDS011;57261;47.504;19.084;2022-12-07T14:28:03;16.08;;;8.60;;
69046;SDS011;57261;47.504;19.084;2022-12-07T14:31:07;15.50;;;8.73;;
69046;SDS011;57261;47.504;19.084;2022-12-07T14:34:12;15.77;;;8.77;;
69046;SDS011;57261;47.504;19.084;2022-12-07T14:37:13;14.90;;;8.38;;
69046;SDS011;57261;47.504;19.084;2022-12-07T14:40:16;14.45;;;8.43;;
69046;SDS011;57261;47.504;19.084;2022-12-07T14:43:18;16.13;;;8.83;;
69046;SDS011;57261;47.504;19.084;2022-12-07T14:46:19;15.98;;;8.57;;
69046;SDS011;57261;47.504;19.084;2022-12-07T14:49:22;13.95;;;8.00;;
69046;SDS011;57261;47.504;19.084;2022-12-07T14:52:25;14.33;;;8.40;;
69046;SDS011;57261;47.504;19.084;2022-12-07T14:55:28;16.70;;;8.55;;
69046;SDS011;57261;47.504;19.084;2022-12-07T14:58:31;14.10;;;8.13;;
69046;SDS011;57261;47.504;19.084;2022-12-07T15:01:32;14.82;;;8.38;;
69046;SDS011;57261;47.504;19.084;2022-12-07T15:04:32;15.47;;;8.50;;
69046;SDS011;57261;47.504;19.084;2022-12-07T15:07:33;17.40;;;9.20;;
69046;SDS011;57261;47.504;19.084;2022-12-07T15:10:33;15.52;;;8.73;;
69046;SDS011;57261;47.504;19.084;2022-12-07T15:13:36;14.65;;;8.00;;
69046;SDS011;57261;47.504;19.084;2022-12-07T15:16:55;16.35;;;9.50;;
69046;SDS011;57261;47.504;19.084;2022-12-07T15:19:58;18.00;;;8.43;;
69046;SDS011;57261;47.504;19.084;2022-12-07T15:22:59;15.25;;;9.15;;
69046;SDS011;57261;47.504;19.084;2022-12-07T15:25:59;16.53;;;9.10;;
69046;SDS011;57261;47.504;19.084;2022-12-07T15:29:01;16.30;;;9.82;;
69046;SDS011;57261;47.504;19.084;2022-12-07T15:32:01;15.80;;;9.23;;
69046;SDS011;57261;47.504;19.084;2022-12-07T15:35:02;15.33;;;8.60;;
69046;SDS011;57261;47.504;19.084;2022-12-07T15:38:03;15.10;;;8.65;;
69046;SDS011;57261;47.504;19.084;2022-12-07T15:41:04;16.03;;;8.57;;
69046;SDS011;57261;47.504;19.084;2022-12-07T15:44:04;15.33;;;8.20;;
69046;SDS011;57261;47.504;19.084;2022-12-07T15:47:24;15.15;;;8.73;;
69046;SDS011;57261;47.504;19.084;2022-12-07T15:50:26;15.98;;;8.95;;
69046;SDS011;57261;47.504;19.084;2022-12-07T15:53:27;14.50;;;8.43;;
69046;SDS011;57261;47.504;19.084;2022-12-07T15:56:28;14.65;;;7.70;;
69046;SDS011;57261;47.504;19.084;2022-12-07T15:59:29;15.67;;;8.43;;
69046;SDS011;57261;47.504;19.084;2022-12-07T16:02:29;15.90;;;8.57;;
69046;SDS011;57261;47.504;19.084;2022-12-07T16:05:30;14.30;;;7.47;;
69046;SDS011;57261;47.504;19.084;2022-12-07T16:08:30;15.30;;;8.50;;
69046;SDS011;57261;47.504;19.084;2022-12-07T16:11:32;14.30;;;8.57;;
69046;SDS011;57261;47.504;19.084;2022-12-07T16:14:32;15.50;;;9.00;;
69046;SDS011;57261;47.504;19.084;2022-12-07T16:17:33;15.95;;;9.20;;
69046;SDS011;57261;47.504;19.084;2022-12-07T16:20:34;15.38;;;8.65;;
69046;SDS011;57261;47.504;19.084;2022-12-07T16:23:34;15.73;;;8.63;;
69046;SDS011;57261;47.504;19.084;2022-12-07T16:26:35;17.67;;;8.63;;
69046;SDS011;57261;47.504;19.084;2022-12-07T16:29:36;17.07;;;9.70;;
69046;SDS011;57261;47.504;19.084;2022-12-07T16:32:36;14.73;;;8.15;;
69046;SDS011;57261;47.504;19.084;2022-12-07T16:35:40;16.00;;;8.83;;
69046;SDS011;57261;47.504;19.084;2022-12-07T16:38:41;16.38;;;8.95;;
69046;SDS011;57261;47.504;19.084;2022-12-07T16:41:41;16.45;;;9.05;;
69046;SDS011;57261;47.504;19.084;2022-12-07T16:44:43;17.23;;;9.70;;
69046;SDS011;57261;47.504;19.084;2022-12-07T16:47:43;16.83;;;9.63;;
69046;SDS011;57261;47.504;19.084;2022-12-07T16:50:44;17.40;;;10.07;;
69046;SDS011;57261;47.504;19.084;2022-12-07T16:53:45;15.77;;;9.13;;
69046;SDS011;57261;47.504;19.084;2022-12-07T16:56:45;18.70;;;9.70;;
69046;SDS011;57261;47.504;19.084;2022-12-07T16:59:46;18.20;;;9.90;;
69046;SDS011;57261;47.504;19.084;2022-12-07T17:02:46;15.60;;;9.13;;
69046;SDS011;57261;47.504;19.084;2022-12-07T17:05:46;16.47;;;8.93;;
69046;SDS011;57261;47.504;19.084;2022-12-07T17:08:47;14.35;;;7.97;;
69046;SDS011;57261;47.504;19.084;2022-12-07T17:11:48;17.00;;;8.80;;
69046;SDS011;57261;47.504;19.084;2022-12-07T17:14:48;17.50;;;9.37;;
69046;SDS011;57261;47.504;19.084;2022-12-07T17:18:07;16.70;;;9.23;;
69046;SDS011;57261;47.504;19.084;2022-12-07T17:21:08;16.23;;;9.00;;
69046;SDS011;57261;47.504;19.084;2022-12-07T17:24:10;15.80;;;8.60;;
69046;SDS011;57261;47.504;19.084;2022-12-07T17:27:12;18.55;;;10.02;;
69046;SDS011;57261;47.504;19.084;2022-12-07T17:30:13;19.30;;;9.97;;
69046;SDS011;57261;47.504;19.084;2022-12-07T17:33:14;14.40;;;8.00;;
69046;SDS011;57261;47.504;19.084;2022-12-07T17:36:17;17.93;;;8.87;;
69046;SDS011;57261;47.504;19.084;2022-12-07T17:39:21;18.10;;;9.68;;
69046;SDS011;57261;47.504;19.084;2022-12-07T17:42:23;16.47;;;8.90;;
69046;SDS011;57261;47.504;19.084;2022-12-07T17:45:36;14.90;;;8.85;;
69046;SDS011;57261;47.504;19.084;2022-12-07T17:48:37;15.73;;;8.63;;
69046;SDS011;57261;47.504;19.084;2022-12-07T17:51:37;15.25;;;8.10;;
69046;SDS011;57261;47.504;19.084;2022-12-07T17:54:57;14.52;;;8.32;;
69046;SDS011;57261;47.504;19.084;2022-12-07T17:57:57;16.48;;;9.30;;
69046;SDS011;57261;47.504;19.084;2022-12-07T18:00:58;18.10;;;9.70;;
69046;SDS011;57261;47.504;19.084;2022-12-07T18:03:58;16.13;;;9.20;;
69046;SDS011;57261;47.504;19.084;2022-12-07T18:06:58;16.27;;;8.77;;
69046;SDS011;57261;47.504;19.084;2022-12-07T18:10:00;17.77;;;10.48;;
69046;SDS011;57261;47.504;19.084;2022-12-07T18:13:00;16.87;;;9.03;;
69046;SDS011;57261;47.504;19.084;2022-12-07T18:16:23;18.38;;;9.45;;
69046;SDS011;57261;47.504;19.084;2022-12-07T18:19:26;17.90;;;9.40;;
69046;SDS011;57261;47.504;19.084;2022-12-07T18:22:29;18.52;;;9.95;;
69046;SDS011;57261;47.504;19.084;2022-12-07T18:25:30;17.30;;;8.90;;
69046;SDS011;57261;47.504;19.084;2022-12-07T18:28:31;23.53;;;12.50;;
69046;SDS011;57261;47.504;19.084;2022-12-07T18:31:32;19.23;;;10.13;;
69046;SDS011;57261;47.504;19.084;2022-12-07T18:34:34;21.05;;;11.20;;
69046;SDS011;57261;47.504;19.084;2022-12-07T18:37:35;19.53;;;10.67;;
69046;SDS011;57261;47.504;19.084;2022-12-07T18:40:37;25.15;;;13.75;;
69046;SDS011;57261;47.504;19.084;2022-12-07T18:43:38;20.77;;;10.57;;
69046;SDS011;57261;47.504;19.084;2022-12-07T18:46:38;19.55;;;10.00;;
69046;SDS011;57261;47.504;19.084;2022-12-07T18:49:41;20.63;;;11.13;;
69046;SDS011;57261;47.504;19.084;2022-12-07T18:52:41;19.60;;;10.77;;
69046;SDS011;57261;47.504;19.084;2022-12-07T18:55:43;23.58;;;12.52;;
69046;SDS011;57261;47.504;19.084;2022-12-07T18:58:47;23.17;;;13.20;;
69046;SDS011;57261;47.504;19.084;2022-12-07T19:02:08;24.15;;;13.02;;
69046;SDS011;57261;47.504;19.084;2022-12-07T19:05:09;20.10;;;11.50;;
69046;SDS011;57261;47.504;19.084;2022-12-07T19:08:10;20.63;;;12.13;;
69046;SDS011;57261;47.504;19.084;2022-12-07T19:11:17;23.03;;;12.03;;
69046;SDS011;57261;47.504;19.084;2022-12-07T19:14:37;23.55;;;12.23;;
69046;SDS011;57261;47.504;19.084;2022-12-07T19:17:37;22.27;;;11.60;;
69046;SDS011;57261;47.504;19.084;2022-12-07T19:20:38;20.27;;;11.75;;
69046;SDS011;57261;47.504;19.084;2022-12-07T19:23:39;22.95;;;11.50;;
69046;SDS011;57261;47.504;19.084;2022-12-07T19:26:40;20.48;;;11.07;;
69046;SDS011;57261;47.504;19.084;2022-12-07T19:29:41;21.77;;;11.43;;
69046;SDS011;57261;47.504;19.084;2022-12-07T19:32:42;21.20;;;12.20;;